sensor_id;sensor_type;location;lat;lon;timestamp;P1;durP1;ratioP1;P2;durP2;ratioP2
3733;SDS011;1882;52.256;8.874;2023-04-06T00:01:44;7.70;;;5.67;;
3733;SDS011;1882;52.256;8.874;2023-04-06T00:04:11;7.50;;;5.90;;
3733;SDS011;1882;52.256;8.874;2023-04-06T00:06:38;6.40;;;5.10;;
3733;SDS011;1882;52.256;8.874;2023-04-06T00:09:05;10.47;;;5.10;;
3733;SDS011;1882;52.256;8.874;2023-04-06T00:11:32;7.07;;;4.90;;
3733;SDS011;1882;52.256;8.874;2023-04-06T00:13:59;7.33;;;4.50;;
3733;SDS011;1882;52.256;8.874;2023-04-06T00:16:26;5.23;;;4.40;;
3733;SDS011;1882;52.256;8.874;2023-04-06T00:18:55;5.77;;;4.30;;
3733;SDS011;1882;52.256;8.874;2023-04-06T00:21:22;7.37;;;4.80;;
3733;SDS011;1882;52.256;8.874;2023-04-06T00:23:49;6.90;;;4.60;;
3733;SDS011;1882;52.256;8.874;2023-04-06T00:26:16;8.13;;;4.80;;
3733;SDS011;1882;52.256;8.874;2023-04-06T00:28:46;9.73;;;4.63;;
3733;SDS011;1882;52.256;8.874;2023-04-06T00:31:12;9.73;;;5.20;;
3733;SDS011;1882;52.256;8.874;2023-04-06T00:33:39;7.57;;;5.10;;
3733;SDS011;1882;52.256;8.874;2023-04-06T00:36:06;8.93;;;4.60;;
3733;SDS011;1882;52.256;8.874;2023-04-06T00:38:33;6.10;;;4.50;;
3733;SDS011;1882;52.256;8.874;2023-04-06T00:41:00;6.50;;;5.07;;
3733;SDS011;1882;52.256;8.874;2023-04-06T00:43:27;9.20;;;4.73;;
3733;SDS011;1882;52.256;8.874;2023-04-06T00:45:53;9.60;;;5.90;;
3733;SDS011;1882;52.256;8.874;2023-04-06T00:48:21;7.40;;;4.93;;
3733;SDS011;1882;52.256;8.874;2023-04-06T00:50:48;6.87;;;5.23;;
3733;SDS011;1882;52.256;8.874;2023-04-06T00:53:14;5.63;;;4.83;;
3733;SDS011;1882;52.256;8.874;2023-04-06T00:55:41;12.80;;;5.43;;
3733;SDS011;1882;52.256;8.874;2023-04-06T00:58:08;8.00;;;5.50;;
3733;SDS011;1882;52.256;8.874;2023-04-06T01:00:44;9.60;;;5.13;;
3733;SDS011;1882;52.256;8.874;2023-04-06T01:03:15;7.00;;;5.50;;
3733;SDS011;1882;52.256;8.874;2023-04-06T01:05:42;8.57;;;5.87;;
3733;SDS011;1882;52.256;8.874;2023-04-06T01:08:18;6.97;;;5.20;;
3733;SDS011;1882;52.256;8.874;2023-04-06T01:10:45;8.63;;;5.67;;
3733;SDS011;1882;52.256;8.874;2023-04-06T01:13:22;12.10;;;6.13;;
3733;SDS011;1882;52.256;8.874;2023-04-06T01:15:54;12.83;;;6.00;;
3733;SDS011;1882;52.256;8.874;2023-04-06T01:18:37;5.90;;;5.20;;
3733;SDS011;1882;52.256;8.874;2023-04-06T01:21:17;6.53;;;5.20;;
3733;SDS011;1882;52.256;8.874;2023-04-06T01:24:04;8.67;;;5.97;;
3733;SDS011;1882;52.256;8.874;2023-04-06T01:26:43;8.23;;;5.93;;
3733;SDS011;1882;52.256;8.874;2023-04-06T01:29:11;8.90;;;5.37;;
3733;SDS011;1882;52.256;8.874;2023-04-06T01:31:38;9.40;;;5.90;;
3733;SDS011;1882;52.256;8.874;2023-04-06T01:34:06;8.93;;;5.30;;
3733;SDS011;1882;52.256;8.874;2023-04-06T01:36:32;7.40;;;5.90;;
3733;SDS011;1882;52.256;8.874;2023-04-06T01:39:19;7.67;;;5.60;;
3733;SDS011;1882;52.256;8.874;2023-04-06T01:41:46;7.53;;;5.80;;
3733;SDS011;1882;52.256;8.874;2023-04-06T01:44:18;11.90;;;6.27;;
3733;SDS011;1882;52.256;8.874;2023-04-06T01:46:50;7.30;;;5.47;;
3733;SDS011;1882;52.256;8.874;2023-04-06T01:49:18;8.03;;;5.60;;
3733;SDS011;1882;52.256;8.874;2023-04-06T01:51:50;7.60;;;5.53;;
3733;SDS011;1882;52.256;8.874;2023-04-06T01:54:16;9.43;;;6.20;;
3733;SDS011;1882;52.256;8.874;2023-04-06T01:56:54;9.63;;;6.30;;
3733;SDS011;1882;52.256;8.874;2023-04-06T01:59:28;11.30;;;5.50;;
3733;SDS011;1882;52.256;8.874;2023-04-06T02:01:56;7.60;;;5.30;;
3733;SDS011;1882;52.256;8.874;2023-04-06T02:04:25;7.20;;;5.60;;
3733;SDS011;1882;52.256;8.874;2023-04-06T02:06:59;8.73;;;6.20;;
3733;SDS011;1882;52.256;8.874;2023-04-06T02:09:28;8.23;;;5.60;;
3733;SDS011;1882;52.256;8.874;2023-04-06T02:11:55;11.73;;;6.83;;
3733;SDS011;1882;52.256;8.874;2023-04-06T02:14:24;8.20;;;5.67;;
3733;SDS011;1882;52.256;8.874;2023-04-06T02:16:55;7.90;;;6.00;;
3733;SDS011;1882;52.256;8.874;2023-04-06T02:19:22;6.87;;;5.47;;
3733;SDS011;1882;52.256;8.874;2023-04-06T02:21:48;10.30;;;5.70;;
3733;SDS011;1882;52.256;8.874;2023-04-06T02:24:15;8.50;;;5.93;;
3733;SDS011;1882;52.256;8.874;2023-04-06T02:26:42;11.43;;;6.30;;
3733;SDS011;1882;52.256;8.874;2023-04-06T02:29:09;12.13;;;5.80;;
3733;SDS011;1882;52.256;8.874;2023-04-06T02:31:36;8.27;;;5.53;;
3733;SDS011;1882;52.256;8.874;2023-04-06T02:34:05;9.10;;;6.03;;
3733;SDS011;1882;52.256;8.874;2023-04-06T02:36:33;13.63;;;6.77;;
3733;SDS011;1882;52.256;8.874;2023-04-06T02:38:59;9.60;;;5.87;;
3733;SDS011;1882;52.256;8.874;2023-04-06T02:41:27;8.67;;;5.60;;
3733;SDS011;1882;52.256;8.874;2023-04-06T02:43:55;9.23;;;6.13;;
3733;SDS011;1882;52.256;8.874;2023-04-06T02:46:33;9.73;;;6.47;;
3733;SDS011;1882;52.256;8.874;2023-04-06T02:49:02;8.13;;;5.80;;
3733;SDS011;1882;52.256;8.874;2023-04-06T02:51:31;7.77;;;5.43;;
3733;SDS011;1882;52.256;8.874;2023-04-06T02:54:09;9.10;;;6.37;;
3733;SDS011;1882;52.256;8.874;2023-04-06T02:56:36;9.77;;;5.97;;
3733;SDS011;1882;52.256;8.874;2023-04-06T02:59:03;10.80;;;6.87;;
3733;SDS011;1882;52.256;8.874;2023-04-06T03:01:31;10.00;;;6.50;;
3733;SDS011;1882;52.256;8.874;2023-04-06T03:04:02;8.40;;;6.40;;
3733;SDS011;1882;52.256;8.874;2023-04-06T03:06:29;10.60;;;6.10;;
3733;SDS011;1882;52.256;8.874;2023-04-06T03:09:03;9.57;;;6.30;;
3733;SDS011;1882;52.256;8.874;2023-04-06T03:11:32;15.07;;;6.63;;
3733;SDS011;1882;52.256;8.874;2023-04-06T03:13:58;7.83;;;6.10;;
3733;SDS011;1882;52.256;8.874;2023-04-06T03:16:25;10.40;;;6.27;;
3733;SDS011;1882;52.256;8.874;2023-04-06T03:18:52;9.60;;;6.07;;
3733;SDS011;1882;52.256;8.874;2023-04-06T03:21:20;8.60;;;6.67;;
3733;SDS011;1882;52.256;8.874;2023-04-06T03:23:51;13.83;;;6.80;;
3733;SDS011;1882;52.256;8.874;2023-04-06T03:26:18;8.87;;;6.10;;
3733;SDS011;1882;52.256;8.874;2023-04-06T03:28:44;10.43;;;6.80;;
3733;SDS011;1882;52.256;8.874;2023-04-06T03:31:12;10.30;;;7.03;;
3733;SDS011;1882;52.256;8.874;2023-04-06T03:33:45;11.30;;;6.40;;
3733;SDS011;1882;52.256;8.874;2023-04-06T03:36:19;9.53;;;6.57;;
3733;SDS011;1882;52.256;8.874;2023-04-06T03:38:46;9.93;;;6.13;;
3733;SDS011;1882;52.256;8.874;2023-04-06T03:41:14;8.43;;;6.40;;
3733;SDS011;1882;52.256;8.874;2023-04-06T03:43:47;12.20;;;6.50;;
3733;SDS011;1882;52.256;8.874;2023-04-06T03:46:14;11.57;;;6.00;;
3733;SDS011;1882;52.256;8.874;2023-04-06T03:48:40;10.67;;;6.30;;
3733;SDS011;1882;52.256;8.874;2023-04-06T03:51:07;12.53;;;6.47;;
3733;SDS011;1882;52.256;8.874;2023-04-06T03:53:34;10.83;;;5.70;;
3733;SDS011;1882;52.256;8.874;2023-04-06T03:56:03;9.90;;;6.40;;
3733;SDS011;1882;52.256;8.874;2023-04-06T03:58:30;11.53;;;6.90;;
3733;SDS011;1882;52.256;8.874;2023-04-06T04:00:57;10.97;;;7.03;;
3733;SDS011;1882;52.256;8.874;2023-04-06T04:03:24;11.80;;;6.70;;
3733;SDS011;1882;52.256;8.874;2023-04-06T04:05:53;9.43;;;6.80;;
3733;SDS011;1882;52.256;8.874;2023-04-06T04:08:24;9.80;;;6.73;;
3733;SDS011;1882;52.256;8.874;2023-04-06T04:10:51;9.60;;;6.37;;
3733;SDS011;1882;52.256;8.874;2023-04-06T04:13:18;9.30;;;6.67;;
3733;SDS011;1882;52.256;8.874;2023-04-06T04:15:48;9.80;;;6.67;;
3733;SDS011;1882;52.256;8.874;2023-04-06T04:18:14;9.80;;;6.33;;
3733;SDS011;1882;52.256;8.874;2023-04-06T04:20:41;8.13;;;6.40;;
3733;SDS011;1882;52.256;8.874;2023-04-06T04:23:10;9.57;;;7.07;;
3733;SDS011;1882;52.256;8.874;2023-04-06T04:25:36;11.27;;;7.37;;
3733;SDS011;1882;52.256;8.874;2023-04-06T04:28:03;11.83;;;7.00;;
3733;SDS011;1882;52.256;8.874;2023-04-06T04:30:30;13.20;;;7.20;;
3733;SDS011;1882;52.256;8.874;2023-04-06T04:32:57;11.07;;;7.20;;
3733;SDS011;1882;52.256;8.874;2023-04-06T04:35:24;11.50;;;7.30;;
3733;SDS011;1882;52.256;8.874;2023-04-06T04:37:51;8.60;;;6.23;;
3733;SDS011;1882;52.256;8.874;2023-04-06T04:40:18;9.13;;;6.77;;
3733;SDS011;1882;52.256;8.874;2023-04-06T04:42:52;9.67;;;6.90;;
3733;SDS011;1882;52.256;8.874;2023-04-06T04:45:26;10.67;;;6.80;;
3733;SDS011;1882;52.256;8.874;2023-04-06T04:47:54;9.97;;;6.30;;
3733;SDS011;1882;52.256;8.874;2023-04-06T04:50:24;10.33;;;6.70;;
3733;SDS011;1882;52.256;8.874;2023-04-06T04:52:55;11.90;;;6.83;;
3733;SDS011;1882;52.256;8.874;2023-04-06T04:55:24;10.10;;;7.10;;
3733;SDS011;1882;52.256;8.874;2023-04-06T04:57:54;9.93;;;6.43;;
3733;SDS011;1882;52.256;8.874;2023-04-06T05:00:29;9.03;;;6.73;;
3733;SDS011;1882;52.256;8.874;2023-04-06T05:02:57;12.00;;;7.30;;
3733;SDS011;1882;52.256;8.874;2023-04-06T05:05:29;10.03;;;6.33;;
3733;SDS011;1882;52.256;8.874;2023-04-06T05:07:57;8.27;;;6.30;;
3733;SDS011;1882;52.256;8.874;2023-04-06T05:10:35;12.93;;;7.03;;
3733;SDS011;1882;52.256;8.874;2023-04-06T05:13:03;9.77;;;6.93;;
3733;SDS011;1882;52.256;8.874;2023-04-06T05:15:30;9.43;;;7.20;;
3733;SDS011;1882;52.256;8.874;2023-04-06T05:18:04;8.23;;;6.83;;
3733;SDS011;1882;52.256;8.874;2023-04-06T05:20:33;17.57;;;7.00;;
3733;SDS011;1882;52.256;8.874;2023-04-06T05:23:01;10.73;;;7.03;;
3733;SDS011;1882;52.256;8.874;2023-04-06T05:25:29;9.07;;;6.60;;
3733;SDS011;1882;52.256;8.874;2023-04-06T05:28:02;15.30;;;7.23;;
3733;SDS011;1882;52.256;8.874;2023-04-06T05:30:32;8.93;;;6.63;;
3733;SDS011;1882;52.256;8.874;2023-04-06T05:32:59;11.17;;;6.97;;
3733;SDS011;1882;52.256;8.874;2023-04-06T05:35:32;10.13;;;7.10;;
3733;SDS011;1882;52.256;8.874;2023-04-06T05:38:09;10.17;;;6.70;;
3733;SDS011;1882;52.256;8.874;2023-04-06T05:40:37;10.70;;;7.23;;
3733;SDS011;1882;52.256;8.874;2023-04-06T05:43:12;9.70;;;6.70;;
3733;SDS011;1882;52.256;8.874;2023-04-06T05:45:43;9.73;;;6.63;;
3733;SDS011;1882;52.256;8.874;2023-04-06T05:51:12;10.87;;;6.77;;
3733;SDS011;1882;52.256;8.874;2023-04-06T05:53:46;11.47;;;7.20;;
3733;SDS011;1882;52.256;8.874;2023-04-06T05:56:12;12.07;;;7.80;;
3733;SDS011;1882;52.256;8.874;2023-04-06T05:58:40;12.27;;;6.77;;
3733;SDS011;1882;52.256;8.874;2023-04-06T06:01:09;11.07;;;7.37;;
3733;SDS011;1882;52.256;8.874;2023-04-06T06:03:41;11.23;;;7.87;;
3733;SDS011;1882;52.256;8.874;2023-04-06T06:06:07;10.30;;;6.67;;
3733;SDS011;1882;52.256;8.874;2023-04-06T06:08:48;11.10;;;7.03;;
3733;SDS011;1882;52.256;8.874;2023-04-06T06:11:16;14.03;;;7.53;;
3733;SDS011;1882;52.256;8.874;2023-04-06T06:13:43;13.77;;;7.70;;
3733;SDS011;1882;52.256;8.874;2023-04-06T06:16:10;10.40;;;7.07;;
3733;SDS011;1882;52.256;8.874;2023-04-06T06:18:42;10.17;;;7.10;;
3733;SDS011;1882;52.256;8.874;2023-04-06T06:21:09;13.10;;;8.13;;
3733;SDS011;1882;52.256;8.874;2023-04-06T06:23:38;11.10;;;7.50;;
3733;SDS011;1882;52.256;8.874;2023-04-06T06:26:14;12.77;;;7.47;;
3733;SDS011;1882;52.256;8.874;2023-04-06T06:28:41;10.60;;;7.47;;
3733;SDS011;1882;52.256;8.874;2023-04-06T06:31:10;12.60;;;7.43;;
3733;SDS011;1882;52.256;8.874;2023-04-06T06:33:39;12.00;;;7.43;;
3733;SDS011;1882;52.256;8.874;2023-04-06T06:36:06;13.20;;;8.63;;
3733;SDS011;1882;52.256;8.874;2023-04-06T06:38:33;10.67;;;7.47;;
3733;SDS011;1882;52.256;8.874;2023-04-06T06:41:00;14.07;;;7.33;;
3733;SDS011;1882;52.256;8.874;2023-04-06T06:43:30;14.73;;;8.80;;
3733;SDS011;1882;52.256;8.874;2023-04-06T06:46:00;13.50;;;8.33;;
3733;SDS011;1882;52.256;8.874;2023-04-06T06:48:27;13.50;;;8.50;;
3733;SDS011;1882;52.256;8.874;2023-04-06T06:50:54;10.33;;;7.50;;
3733;SDS011;1882;52.256;8.874;2023-04-06T06:53:21;12.50;;;7.40;;
3733;SDS011;1882;52.256;8.874;2023-04-06T06:55:49;9.63;;;7.40;;
3733;SDS011;1882;52.256;8.874;2023-04-06T06:58:19;11.03;;;7.57;;
3733;SDS011;1882;52.256;8.874;2023-04-06T07:00:49;10.87;;;7.63;;
3733;SDS011;1882;52.256;8.874;2023-04-06T07:03:15;9.67;;;7.33;;
3733;SDS011;1882;52.256;8.874;2023-04-06T07:05:46;12.77;;;7.17;;
3733;SDS011;1882;52.256;8.874;2023-04-06T07:08:21;17.53;;;8.07;;
3733;SDS011;1882;52.256;8.874;2023-04-06T07:10:49;10.50;;;8.07;;
3733;SDS011;1882;52.256;8.874;2023-04-06T07:13:19;11.67;;;7.80;;
3733;SDS011;1882;52.256;8.874;2023-04-06T07:15:51;12.87;;;7.77;;
3733;SDS011;1882;52.256;8.874;2023-04-06T07:18:19;10.67;;;7.83;;
3733;SDS011;1882;52.256;8.874;2023-04-06T07:20:47;13.37;;;8.00;;
3733;SDS011;1882;52.256;8.874;2023-04-06T07:23:15;15.97;;;7.70;;
3733;SDS011;1882;52.256;8.874;2023-04-06T07:25:42;11.90;;;7.60;;
3733;SDS011;1882;52.256;8.874;2023-04-06T07:28:09;10.93;;;7.60;;
3733;SDS011;1882;52.256;8.874;2023-04-06T07:30:36;10.87;;;7.43;;
3733;SDS011;1882;52.256;8.874;2023-04-06T07:33:07;10.67;;;7.10;;
3733;SDS011;1882;52.256;8.874;2023-04-06T07:35:35;9.83;;;7.70;;
3733;SDS011;1882;52.256;8.874;2023-04-06T07:38:04;13.40;;;7.67;;
3733;SDS011;1882;52.256;8.874;2023-04-06T07:40:31;14.40;;;8.03;;
3733;SDS011;1882;52.256;8.874;2023-04-06T07:42:59;13.53;;;7.53;;
3733;SDS011;1882;52.256;8.874;2023-04-06T07:45:26;13.10;;;8.00;;
3733;SDS011;1882;52.256;8.874;2023-04-06T07:47:53;13.43;;;8.00;;
3733;SDS011;1882;52.256;8.874;2023-04-06T07:50:22;11.13;;;7.70;;
3733;SDS011;1882;52.256;8.874;2023-04-06T07:52:49;13.50;;;8.20;;
3733;SDS011;1882;52.256;8.874;2023-04-06T07:55:15;11.07;;;7.57;;
3733;SDS011;1882;52.256;8.874;2023-04-06T07:57:42;13.37;;;7.70;;
3733;SDS011;1882;52.256;8.874;2023-04-06T08:00:09;13.47;;;7.83;;
3733;SDS011;1882;52.256;8.874;2023-04-06T08:02:39;10.50;;;7.80;;
3733;SDS011;1882;52.256;8.874;2023-04-06T08:05:06;11.70;;;7.93;;
3733;SDS011;1882;52.256;8.874;2023-04-06T08:07:33;10.93;;;8.23;;
3733;SDS011;1882;52.256;8.874;2023-04-06T08:10:02;12.73;;;8.00;;
3733;SDS011;1882;52.256;8.874;2023-04-06T08:12:29;10.93;;;7.87;;
3733;SDS011;1882;52.256;8.874;2023-04-06T08:14:56;12.80;;;8.13;;
3733;SDS011;1882;52.256;8.874;2023-04-06T08:17:23;12.10;;;8.20;;
3733;SDS011;1882;52.256;8.874;2023-04-06T08:19:50;10.20;;;7.60;;
3733;SDS011;1882;52.256;8.874;2023-04-06T08:22:16;11.60;;;7.83;;
3733;SDS011;1882;52.256;8.874;2023-04-06T08:24:43;13.70;;;8.23;;
3733;SDS011;1882;52.256;8.874;2023-04-06T08:27:10;16.67;;;9.47;;
3733;SDS011;1882;52.256;8.874;2023-04-06T08:29:37;13.13;;;8.57;;
3733;SDS011;1882;52.256;8.874;2023-04-06T08:32:04;15.53;;;9.40;;
3733;SDS011;1882;52.256;8.874;2023-04-06T08:34:34;19.90;;;10.93;;
3733;SDS011;1882;52.256;8.874;2023-04-06T08:37:01;13.37;;;8.50;;
3733;SDS011;1882;52.256;8.874;2023-04-06T08:39:28;13.90;;;8.20;;
3733;SDS011;1882;52.256;8.874;2023-04-06T08:41:57;14.87;;;8.30;;
3733;SDS011;1882;52.256;8.874;2023-04-06T08:44:26;10.40;;;8.10;;
3733;SDS011;1882;52.256;8.874;2023-04-06T08:46:53;10.70;;;7.70;;
3733;SDS011;1882;52.256;8.874;2023-04-06T08:49:21;13.13;;;8.60;;
3733;SDS011;1882;52.256;8.874;2023-04-06T08:51:48;14.27;;;8.40;;
3733;SDS011;1882;52.256;8.874;2023-04-06T08:54:16;14.60;;;8.30;;
3733;SDS011;1882;52.256;8.874;2023-04-06T08:56:46;13.50;;;8.27;;
3733;SDS011;1882;52.256;8.874;2023-04-06T08:59:13;13.20;;;8.80;;
3733;SDS011;1882;52.256;8.874;2023-04-06T09:01:41;12.70;;;8.07;;
3733;SDS011;1882;52.256;8.874;2023-04-06T09:04:09;11.67;;;7.80;;
3733;SDS011;1882;52.256;8.874;2023-04-06T09:06:38;12.10;;;7.53;;
3733;SDS011;1882;52.256;8.874;2023-04-06T09:09:07;13.53;;;8.67;;
3733;SDS011;1882;52.256;8.874;2023-04-06T09:11:49;11.73;;;7.80;;
3733;SDS011;1882;52.256;8.874;2023-04-06T09:14:17;14.97;;;8.10;;
3733;SDS011;1882;52.256;8.874;2023-04-06T09:16:59;13.57;;;7.83;;
3733;SDS011;1882;52.256;8.874;2023-04-06T09:19:25;12.70;;;8.00;;
3733;SDS011;1882;52.256;8.874;2023-04-06T09:22:04;10.90;;;8.33;;
3733;SDS011;1882;52.256;8.874;2023-04-06T09:24:41;14.00;;;8.60;;
3733;SDS011;1882;52.256;8.874;2023-04-06T09:27:08;12.87;;;8.37;;
3733;SDS011;1882;52.256;8.874;2023-04-06T09:29:35;12.90;;;8.80;;
3733;SDS011;1882;52.256;8.874;2023-04-06T09:32:04;11.00;;;7.83;;
3733;SDS011;1882;52.256;8.874;2023-04-06T09:34:43;13.23;;;8.77;;
3733;SDS011;1882;52.256;8.874;2023-04-06T09:37:17;11.20;;;8.50;;
3733;SDS011;1882;52.256;8.874;2023-04-06T09:39:45;17.50;;;9.37;;
3733;SDS011;1882;52.256;8.874;2023-04-06T09:42:24;12.27;;;7.67;;
3733;SDS011;1882;52.256;8.874;2023-04-06T09:44:52;12.00;;;8.70;;
3733;SDS011;1882;52.256;8.874;2023-04-06T09:47:19;13.13;;;8.17;;
3733;SDS011;1882;52.256;8.874;2023-04-06T09:49:47;13.67;;;8.90;;
3733;SDS011;1882;52.256;8.874;2023-04-06T09:52:14;12.53;;;7.70;;
3733;SDS011;1882;52.256;8.874;2023-04-06T09:54:41;11.10;;;7.90;;
3733;SDS011;1882;52.256;8.874;2023-04-06T09:57:21;12.60;;;7.90;;
3733;SDS011;1882;52.256;8.874;2023-04-06T10:00:02;12.00;;;8.40;;
3733;SDS011;1882;52.256;8.874;2023-04-06T10:08:13;13.70;;;8.10;;
3733;SDS011;1882;52.256;8.874;2023-04-06T10:10:41;16.77;;;8.67;;
3733;SDS011;1882;52.256;8.874;2023-04-06T10:13:08;13.70;;;8.60;;
3733;SDS011;1882;52.256;8.874;2023-04-06T10:15:38;19.83;;;9.20;;
3733;SDS011;1882;52.256;8.874;2023-04-06T10:18:05;14.60;;;8.37;;
3733;SDS011;1882;52.256;8.874;2023-04-06T10:28:20;16.10;;;9.60;;
3733;SDS011;1882;52.256;8.874;2023-04-06T10:30:47;18.40;;;9.70;;
3733;SDS011;1882;52.256;8.874;2023-04-06T10:33:20;16.40;;;10.63;;
3733;SDS011;1882;52.256;8.874;2023-04-06T10:35:49;15.40;;;10.07;;
3733;SDS011;1882;52.256;8.874;2023-04-06T10:38:16;16.67;;;10.67;;
3733;SDS011;1882;52.256;8.874;2023-04-06T10:40:47;19.43;;;11.13;;
3733;SDS011;1882;52.256;8.874;2023-04-06T10:45:57;16.17;;;10.03;;
3733;SDS011;1882;52.256;8.874;2023-04-06T10:48:42;18.00;;;11.17;;
3733;SDS011;1882;52.256;8.874;2023-04-06T10:51:15;16.07;;;10.40;;
3733;SDS011;1882;52.256;8.874;2023-04-06T10:53:43;19.03;;;10.80;;
3733;SDS011;1882;52.256;8.874;2023-04-06T10:56:12;18.60;;;10.60;;
3733;SDS011;1882;52.256;8.874;2023-04-06T10:58:47;19.33;;;11.20;;
3733;SDS011;1882;52.256;8.874;2023-04-06T11:01:15;15.03;;;10.50;;
3733;SDS011;1882;52.256;8.874;2023-04-06T11:03:44;16.60;;;10.30;;
3733;SDS011;1882;52.256;8.874;2023-04-06T11:08:54;17.73;;;10.20;;
3733;SDS011;1882;52.256;8.874;2023-04-06T11:11:22;17.83;;;10.30;;
3733;SDS011;1882;52.256;8.874;2023-04-06T11:13:53;16.57;;;10.30;;
3733;SDS011;1882;52.256;8.874;2023-04-06T11:18:55;21.33;;;10.70;;
3733;SDS011;1882;52.256;8.874;2023-04-06T11:21:35;17.00;;;10.70;;
3733;SDS011;1882;52.256;8.874;2023-04-06T11:24:22;17.67;;;10.70;;
3733;SDS011;1882;52.256;8.874;2023-04-06T11:29:18;14.17;;;9.70;;
3733;SDS011;1882;52.256;8.874;2023-04-06T11:32:01;17.43;;;10.50;;
3733;SDS011;1882;52.256;8.874;2023-04-06T11:34:34;17.87;;;10.40;;
3733;SDS011;1882;52.256;8.874;2023-04-06T11:37:04;17.10;;;10.73;;
3733;SDS011;1882;52.256;8.874;2023-04-06T11:39:39;16.10;;;11.07;;
3733;SDS011;1882;52.256;8.874;2023-04-06T11:42:26;19.80;;;11.07;;
3733;SDS011;1882;52.256;8.874;2023-04-06T11:44:56;17.70;;;10.60;;
3733;SDS011;1882;52.256;8.874;2023-04-06T11:47:27;17.23;;;11.00;;
3733;SDS011;1882;52.256;8.874;2023-04-06T11:49:55;19.90;;;12.03;;
3733;SDS011;1882;52.256;8.874;2023-04-06T11:52:26;19.37;;;12.17;;
3733;SDS011;1882;52.256;8.874;2023-04-06T11:54:54;24.60;;;12.77;;
3733;SDS011;1882;52.256;8.874;2023-04-06T11:57:23;19.60;;;11.63;;
3733;SDS011;1882;52.256;8.874;2023-04-06T11:59:54;18.77;;;11.53;;
3733;SDS011;1882;52.256;8.874;2023-04-06T12:02:21;17.30;;;11.00;;
3733;SDS011;1882;52.256;8.874;2023-04-06T12:04:48;20.57;;;11.87;;
3733;SDS011;1882;52.256;8.874;2023-04-06T12:07:15;20.03;;;12.13;;
3733;SDS011;1882;52.256;8.874;2023-04-06T12:09:42;17.07;;;10.90;;
3733;SDS011;1882;52.256;8.874;2023-04-06T12:12:09;19.00;;;11.50;;
3733;SDS011;1882;52.256;8.874;2023-04-06T12:14:36;23.00;;;11.37;;
3733;SDS011;1882;52.256;8.874;2023-04-06T12:17:03;18.87;;;11.67;;
3733;SDS011;1882;52.256;8.874;2023-04-06T12:19:31;18.00;;;11.33;;
3733;SDS011;1882;52.256;8.874;2023-04-06T12:21:58;17.97;;;11.50;;
3733;SDS011;1882;52.256;8.874;2023-04-06T12:24:24;17.47;;;10.60;;
3733;SDS011;1882;52.256;8.874;2023-04-06T12:26:51;16.60;;;10.97;;
3733;SDS011;1882;52.256;8.874;2023-04-06T12:29:34;18.73;;;12.10;;
3733;SDS011;1882;52.256;8.874;2023-04-06T12:32:01;19.20;;;11.70;;
3733;SDS011;1882;52.256;8.874;2023-04-06T12:34:28;19.97;;;11.43;;
3733;SDS011;1882;52.256;8.874;2023-04-06T12:36:55;23.20;;;12.30;;
3733;SDS011;1882;52.256;8.874;2023-04-06T12:39:22;21.70;;;11.90;;
3733;SDS011;1882;52.256;8.874;2023-04-06T12:41:50;16.07;;;11.30;;
3733;SDS011;1882;52.256;8.874;2023-04-06T12:44:18;20.30;;;12.17;;
3733;SDS011;1882;52.256;8.874;2023-04-06T12:46:45;18.20;;;11.57;;
3733;SDS011;1882;52.256;8.874;2023-04-06T12:49:13;19.20;;;11.10;;
3733;SDS011;1882;52.256;8.874;2023-04-06T12:51:39;18.10;;;12.00;;
3733;SDS011;1882;52.256;8.874;2023-04-06T12:54:06;18.93;;;11.30;;
3733;SDS011;1882;52.256;8.874;2023-04-06T12:56:33;18.30;;;11.57;;
3733;SDS011;1882;52.256;8.874;2023-04-06T12:59:00;20.10;;;11.17;;
3733;SDS011;1882;52.256;8.874;2023-04-06T13:01:27;18.47;;;11.10;;
3733;SDS011;1882;52.256;8.874;2023-04-06T13:03:55;15.87;;;10.70;;
3733;SDS011;1882;52.256;8.874;2023-04-06T13:06:23;17.87;;;11.37;;
3733;SDS011;1882;52.256;8.874;2023-04-06T13:08:54;21.47;;;11.30;;
3733;SDS011;1882;52.256;8.874;2023-04-06T13:11:21;16.00;;;10.43;;
3733;SDS011;1882;52.256;8.874;2023-04-06T13:13:53;17.60;;;11.00;;
3733;SDS011;1882;52.256;8.874;2023-04-06T13:16:20;15.63;;;10.80;;
3733;SDS011;1882;52.256;8.874;2023-04-06T13:18:47;16.37;;;10.37;;
3733;SDS011;1882;52.256;8.874;2023-04-06T13:21:14;16.23;;;10.83;;
3733;SDS011;1882;52.256;8.874;2023-04-06T13:23:42;18.83;;;11.50;;
3733;SDS011;1882;52.256;8.874;2023-04-06T13:26:10;19.03;;;11.27;;
3733;SDS011;1882;52.256;8.874;2023-04-06T13:28:36;18.20;;;10.60;;
3733;SDS011;1882;52.256;8.874;2023-04-06T13:31:05;17.10;;;10.30;;
3733;SDS011;1882;52.256;8.874;2023-04-06T13:33:32;18.27;;;11.03;;
3733;SDS011;1882;52.256;8.874;2023-04-06T13:36:00;15.87;;;10.47;;
3733;SDS011;1882;52.256;8.874;2023-04-06T13:38:27;15.10;;;10.73;;
3733;SDS011;1882;52.256;8.874;2023-04-06T13:40:54;16.13;;;10.43;;
3733;SDS011;1882;52.256;8.874;2023-04-06T13:43:21;16.73;;;11.07;;
3733;SDS011;1882;52.256;8.874;2023-04-06T13:45:48;14.73;;;10.70;;
3733;SDS011;1882;52.256;8.874;2023-04-06T13:48:18;22.83;;;11.70;;
3733;SDS011;1882;52.256;8.874;2023-04-06T13:50:44;19.67;;;11.50;;
3733;SDS011;1882;52.256;8.874;2023-04-06T13:53:14;18.50;;;9.50;;
3733;SDS011;1882;52.256;8.874;2023-04-06T13:55:41;17.80;;;10.27;;
3733;SDS011;1882;52.256;8.874;2023-04-06T13:58:08;18.93;;;10.90;;
3733;SDS011;1882;52.256;8.874;2023-04-06T14:00:35;19.77;;;11.03;;
3733;SDS011;1882;52.256;8.874;2023-04-06T14:03:02;15.43;;;10.67;;
3733;SDS011;1882;52.256;8.874;2023-04-06T14:05:32;17.50;;;11.43;;
3733;SDS011;1882;52.256;8.874;2023-04-06T14:07:59;18.00;;;11.60;;
3733;SDS011;1882;52.256;8.874;2023-04-06T14:10:26;19.80;;;10.90;;
3733;SDS011;1882;52.256;8.874;2023-04-06T14:12:54;19.60;;;11.83;;
3733;SDS011;1882;52.256;8.874;2023-04-06T14:15:22;19.40;;;11.80;;
3733;SDS011;1882;52.256;8.874;2023-04-06T14:17:49;17.77;;;11.40;;
3733;SDS011;1882;52.256;8.874;2023-04-06T14:20:16;17.93;;;11.83;;
3733;SDS011;1882;52.256;8.874;2023-04-06T14:22:43;20.43;;;11.37;;
3733;SDS011;1882;52.256;8.874;2023-04-06T14:25:10;15.60;;;11.30;;
3733;SDS011;1882;52.256;8.874;2023-04-06T14:27:39;16.50;;;11.00;;
3733;SDS011;1882;52.256;8.874;2023-04-06T14:30:06;18.50;;;11.50;;
3733;SDS011;1882;52.256;8.874;2023-04-06T14:32:34;17.57;;;10.90;;
3733;SDS011;1882;52.256;8.874;2023-04-06T14:35:05;20.07;;;12.17;;
3733;SDS011;1882;52.256;8.874;2023-04-06T14:37:33;19.37;;;10.73;;
3733;SDS011;1882;52.256;8.874;2023-04-06T14:40:00;17.13;;;11.40;;
3733;SDS011;1882;52.256;8.874;2023-04-06T14:42:28;18.87;;;12.13;;
3733;SDS011;1882;52.256;8.874;2023-04-06T14:44:56;19.50;;;11.50;;
3733;SDS011;1882;52.256;8.874;2023-04-06T14:47:25;17.67;;;10.00;;
3733;SDS011;1882;52.256;8.874;2023-04-06T14:49:52;16.53;;;9.17;;
3733;SDS011;1882;52.256;8.874;2023-04-06T14:52:19;17.10;;;9.93;;
3733;SDS011;1882;52.256;8.874;2023-04-06T14:54:46;15.33;;;9.40;;
3733;SDS011;1882;52.256;8.874;2023-04-06T14:57:13;14.70;;;8.03;;
3733;SDS011;1882;52.256;8.874;2023-04-06T14:59:40;15.10;;;7.73;;
3733;SDS011;1882;52.256;8.874;2023-04-06T15:02:07;12.33;;;8.13;;
3733;SDS011;1882;52.256;8.874;2023-04-06T15:04:34;15.27;;;9.30;;
3733;SDS011;1882;52.256;8.874;2023-04-06T15:07:01;16.60;;;8.63;;
3733;SDS011;1882;52.256;8.874;2023-04-06T15:09:28;15.83;;;9.30;;
3733;SDS011;1882;52.256;8.874;2023-04-06T15:11:55;14.50;;;8.90;;
3733;SDS011;1882;52.256;8.874;2023-04-06T15:14:22;17.50;;;8.63;;
3733;SDS011;1882;52.256;8.874;2023-04-06T15:16:49;15.07;;;8.83;;
3733;SDS011;1882;52.256;8.874;2023-04-06T15:19:16;15.50;;;9.00;;
3733;SDS011;1882;52.256;8.874;2023-04-06T15:21:42;18.70;;;9.30;;
3733;SDS011;1882;52.256;8.874;2023-04-06T15:24:09;16.87;;;8.93;;
3733;SDS011;1882;52.256;8.874;2023-04-06T15:26:41;16.80;;;8.67;;
3733;SDS011;1882;52.256;8.874;2023-04-06T15:29:07;14.63;;;8.90;;
3733;SDS011;1882;52.256;8.874;2023-04-06T15:31:34;16.27;;;9.20;;
3733;SDS011;1882;52.256;8.874;2023-04-06T15:34:04;16.97;;;9.40;;
3733;SDS011;1882;52.256;8.874;2023-04-06T15:36:34;18.80;;;10.30;;
3733;SDS011;1882;52.256;8.874;2023-04-06T15:39:01;17.10;;;10.00;;